메인 페이지
METAR-TAF:

METAR-TAF

공항 :

두알라, 카메룬

위도: 04-00N, 경도: 009-44E, 고도: 10m

현재 날씨관측

예보는 30분 전, 11:00시(UTC)에 발표되었습니다.
무풍
온도 24°C
습도 100%
기압 1015 hPa
시정: 2000m
고도 600ft 상공 구름 조금
고도 1200ft 상공 구름 많음
고도 1500ft 상공 구름 보통, 적란운.
뇌우, 약한비, 이슬비

METAR: FKKD 241100Z 00000KT 2000 -TSRADZ FEW006 BKN012 SCT015CB 24/24 Q1015 NOSIG

시각: 12:30 (11:30 UTC)

예보

예보는 6 시간 30분 전, 05:00시(UTC)에 발표되었습니다.
예보 대상 시간: 24일 06시부터 25일 12시까지 (UTC)
6kt
시정: 6000m
고도 600ft 상공 구름 조금
고도 1300ft 상공 구름 많음
고도 1600ft 상공 구름 조금, 적란운.
약한비, 이슬비
일시적
24일 06시부터 24일 09시까지 (UTC)
시정: 2500m
뇌우, 약한비, 이슬비
확률 40%
24일 13시부터 24일 18시까지 (UTC)
시정: 3000m
뇌우, 비, 이슬비

TAF: FKKD 240500Z 2406/2512 26006KT 6000 -RADZ FEW006 BKN013 FEW016CB TEMPO 2406/2409 2500 -TSRADZ PROB40 2413/2418 3000 TSRADZ

4,000개 이상의 공항 관측 자료 및 예보 (METAR 및 TAF 보고).

지도상에서 검색 가능한 기상관측소가 노란 점과 빨간 점으로 표시되어 있습니다.

기상관측소 명을 보려면 표시 위로 마우스를 이동하세요.

날씨 관측과 예보를 보려면 클릭하세요.

지도 변경 : 확대하려면 엑스 표시가 있는 녹색 버튼, 축소하려면 빼기 표시가 있는 녹색 버튼, 다음 페이지의 지도를 보려면 녹색 화살표를 클릭하세요.


METAR-TAF: